sensor_id;sensor_type;location;lat;lon;timestamp;pressure;altitude;pressure_sealevel;temperature;humidity
55077;BME280;40971;44.702;11.030;2024-01-30T00:08:25;103706.59;;;-0.43;100.00
55077;BME280;40971;44.702;11.030;2024-01-30T00:18:29;103713.31;;;-0.29;100.00
55077;BME280;40971;44.702;11.030;2024-01-30T00:28:31;103696.03;;;-0.25;100.00
55077;BME280;40971;44.702;11.030;2024-01-30T00:38:37;103705.63;;;-0.35;100.00
55077;BME280;40971;44.702;11.030;2024-01-30T00:48:39;103698.97;;;-0.51;100.00
55077;BME280;40971;44.702;11.030;2024-01-30T00:58:40;103704.16;;;-0.55;100.00
55077;BME280;40971;44.702;11.030;2024-01-30T01:08:41;103702.66;;;-0.72;100.00
55077;BME280;40971;44.702;11.030;2024-01-30T01:18:42;103704.84;;;-0.41;100.00
55077;BME280;40971;44.702;11.030;2024-01-30T01:28:44;103699.34;;;-0.14;100.00
55077;BME280;40971;44.702;11.030;2024-01-30T01:38:45;103696.31;;;0.15;100.00
55077;BME280;40971;44.702;11.030;2024-01-30T01:48:47;103700.25;;;-0.18;100.00
55077;BME280;40971;44.702;11.030;2024-01-30T01:58:51;103693.50;;;-0.30;100.00
55077;BME280;40971;44.702;11.030;2024-01-30T02:08:56;103693.16;;;-0.06;100.00
55077;BME280;40971;44.702;11.030;2024-01-30T02:19:00;103683.50;;;0.07;100.00
55077;BME280;40971;44.702;11.030;2024-01-30T02:29:01;103669.31;;;-0.24;100.00
55077;BME280;40971;44.702;11.030;2024-01-30T02:39:03;103676.16;;;-0.20;100.00
55077;BME280;40971;44.702;11.030;2024-01-30T02:49:06;103669.66;;;0.11;100.00
55077;BME280;40971;44.702;11.030;2024-01-30T02:59:08;103666.72;;;-0.24;100.00
55077;BME280;40971;44.702;11.030;2024-01-30T03:09:09;103664.25;;;-0.32;100.00
55077;BME280;40971;44.702;11.030;2024-01-30T03:19:12;103652.69;;;-0.07;100.00
55077;BME280;40971;44.702;11.030;2024-01-30T03:29:16;103660.91;;;-0.40;100.00
55077;BME280;40971;44.702;11.030;2024-01-30T03:39:18;103654.78;;;-0.31;100.00
55077;BME280;40971;44.702;11.030;2024-01-30T03:49:20;103653.91;;;-0.32;100.00
55077;BME280;40971;44.702;11.030;2024-01-30T03:59:20;103663.19;;;-0.17;100.00
55077;BME280;40971;44.702;11.030;2024-01-30T04:09:24;103660.00;;;-0.37;100.00
55077;BME280;40971;44.702;11.030;2024-01-30T04:19:28;103653.16;;;-0.41;100.00
55077;BME280;40971;44.702;11.030;2024-01-30T04:29:29;103654.97;;;-0.46;100.00
55077;BME280;40971;44.702;11.030;2024-01-30T04:39:33;103656.66;;;-0.42;100.00
55077;BME280;40971;44.702;11.030;2024-01-30T04:49:38;103660.97;;;-0.44;100.00
55077;BME280;40971;44.702;11.030;2024-01-30T04:59:40;103656.19;;;-0.75;100.00
55077;BME280;40971;44.702;11.030;2024-01-30T05:09:41;103679.72;;;-0.99;100.00
55077;BME280;40971;44.702;11.030;2024-01-30T05:19:44;103675.28;;;-0.89;100.00
55077;BME280;40971;44.702;11.030;2024-01-30T05:29:46;103682.38;;;-1.05;100.00
55077;BME280;40971;44.702;11.030;2024-01-30T05:39:47;103682.28;;;-0.97;100.00
55077;BME280;40971;44.702;11.030;2024-01-30T05:49:49;103677.69;;;-0.71;100.00
55077;BME280;40971;44.702;11.030;2024-01-30T05:59:53;103680.31;;;-0.76;100.00
55077;BME280;40971;44.702;11.030;2024-01-30T06:09:55;103695.63;;;-0.61;100.00
55077;BME280;40971;44.702;11.030;2024-01-30T06:19:57;103684.50;;;-0.66;100.00
55077;BME280;40971;44.702;11.030;2024-01-30T06:29:57;103686.06;;;-0.54;100.00
55077;BME280;40971;44.702;11.030;2024-01-30T06:39:59;103696.34;;;-0.49;100.00
55077;BME280;40971;44.702;11.030;2024-01-30T06:50:00;103701.50;;;-0.49;100.00
55077;BME280;40971;44.702;11.030;2024-01-30T07:00:03;103724.16;;;-0.71;100.00
55077;BME280;40971;44.702;11.030;2024-01-30T07:10:06;103712.34;;;-0.92;100.00
55077;BME280;40971;44.702;11.030;2024-01-30T07:20:08;103731.28;;;-0.90;100.00
55077;BME280;40971;44.702;11.030;2024-01-30T07:30:11;103736.31;;;-0.81;100.00
55077;BME280;40971;44.702;11.030;2024-01-30T07:40:13;103735.66;;;-0.98;100.00
55077;BME280;40971;44.702;11.030;2024-01-30T07:50:17;103747.38;;;-0.68;100.00
55077;BME280;40971;44.702;11.030;2024-01-30T08:00:21;103743.94;;;-0.67;100.00
55077;BME280;40971;44.702;11.030;2024-01-30T08:10:23;103757.22;;;-1.05;100.00
55077;BME280;40971;44.702;11.030;2024-01-30T08:20:25;103747.69;;;-0.97;100.00
55077;BME280;40971;44.702;11.030;2024-01-30T08:30:27;103754.84;;;-0.42;100.00
55077;BME280;40971;44.702;11.030;2024-01-30T08:40:31;103743.94;;;-0.69;100.00
55077;BME280;40971;44.702;11.030;2024-01-30T08:50:32;103748.72;;;-0.35;100.00
55077;BME280;40971;44.702;11.030;2024-01-30T09:00:34;103737.25;;;-0.16;100.00
55077;BME280;40971;44.702;11.030;2024-01-30T09:10:36;103734.94;;;0.25;100.00
55077;BME280;40971;44.702;11.030;2024-01-30T09:20:38;103716.03;;;0.75;100.00
55077;BME280;40971;44.702;11.030;2024-01-30T09:30:40;103705.78;;;1.15;100.00
55077;BME280;40971;44.702;11.030;2024-01-30T09:40:42;103701.88;;;1.37;100.00
55077;BME280;40971;44.702;11.030;2024-01-30T09:50:47;103718.56;;;1.65;100.00
55077;BME280;40971;44.702;11.030;2024-01-30T10:00:48;103721.78;;;1.76;100.00
55077;BME280;40971;44.702;11.030;2024-01-30T10:10:51;103714.69;;;1.85;100.00
55077;BME280;40971;44.702;11.030;2024-01-30T10:20:54;103707.84;;;2.19;100.00
55077;BME280;40971;44.702;11.030;2024-01-30T10:31:00;103692.81;;;2.33;100.00
55077;BME280;40971;44.702;11.030;2024-01-30T10:41:03;103685.53;;;2.79;100.00
55077;BME280;40971;44.702;11.030;2024-01-30T10:51:06;103676.06;;;2.78;100.00
55077;BME280;40971;44.702;11.030;2024-01-30T11:01:11;103646.97;;;3.27;100.00
55077;BME280;40971;44.702;11.030;2024-01-30T11:11:16;103642.63;;;3.57;100.00
55077;BME280;40971;44.702;11.030;2024-01-30T11:21:18;103624.91;;;3.96;100.00
55077;BME280;40971;44.702;11.030;2024-01-30T11:31:19;103615.44;;;4.46;100.00
55077;BME280;40971;44.702;11.030;2024-01-30T11:41:23;103608.09;;;4.57;100.00
55077;BME280;40971;44.702;11.030;2024-01-30T11:51:27;103590.69;;;4.82;100.00
55077;BME280;40971;44.702;11.030;2024-01-30T12:01:30;103578.13;;;5.38;100.00
55077;BME280;40971;44.702;11.030;2024-01-30T12:11:33;103574.59;;;5.39;99.13
55077;BME280;40971;44.702;11.030;2024-01-30T12:21:45;103564.63;;;5.70;99.84
55077;BME280;40971;44.702;11.030;2024-01-30T12:31:48;103552.88;;;5.60;100.00
55077;BME280;40971;44.702;11.030;2024-01-30T12:41:51;103531.25;;;5.78;99.71
55077;BME280;40971;44.702;11.030;2024-01-30T12:51:54;103521.38;;;6.07;99.59
55077;BME280;40971;44.702;11.030;2024-01-30T13:01:58;103515.03;;;6.32;97.18
55077;BME280;40971;44.702;11.030;2024-01-30T13:12:00;103502.03;;;6.70;94.89
55077;BME280;40971;44.702;11.030;2024-01-30T13:22:03;103480.31;;;7.05;95.92
55077;BME280;40971;44.702;11.030;2024-01-30T13:32:05;103484.09;;;7.52;95.23
55077;BME280;40971;44.702;11.030;2024-01-30T13:42:09;103470.66;;;8.10;88.04
55077;BME280;40971;44.702;11.030;2024-01-30T13:52:11;103462.28;;;8.20;86.89
55077;BME280;40971;44.702;11.030;2024-01-30T14:02:14;103464.19;;;8.34;86.46
55077;BME280;40971;44.702;11.030;2024-01-30T14:12:16;103457.47;;;8.61;85.41
55077;BME280;40971;44.702;11.030;2024-01-30T14:22:18;103460.94;;;8.77;82.89
55077;BME280;40971;44.702;11.030;2024-01-30T14:32:20;103459.31;;;8.59;81.59
55077;BME280;40971;44.702;11.030;2024-01-30T14:42:23;103448.47;;;8.17;86.82
55077;BME280;40971;44.702;11.030;2024-01-30T14:52:27;103447.72;;;8.15;86.59
55077;BME280;40971;44.702;11.030;2024-01-30T15:02:30;103455.00;;;7.76;87.80
55077;BME280;40971;44.702;11.030;2024-01-30T15:12:32;103460.75;;;6.95;90.09
55077;BME280;40971;44.702;11.030;2024-01-30T15:22:37;103441.75;;;6.35;93.78
55077;BME280;40971;44.702;11.030;2024-01-30T15:32:43;103452.75;;;6.03;96.41
55077;BME280;40971;44.702;11.030;2024-01-30T15:42:46;103461.47;;;5.62;97.53
55077;BME280;40971;44.702;11.030;2024-01-30T15:52:49;103473.28;;;5.28;99.35
55077;BME280;40971;44.702;11.030;2024-01-30T16:02:51;103471.81;;;4.78;100.00
55077;BME280;40971;44.702;11.030;2024-01-30T16:12:55;103470.81;;;4.11;100.00
55077;BME280;40971;44.702;11.030;2024-01-30T16:22:56;103478.78;;;3.57;100.00
55077;BME280;40971;44.702;11.030;2024-01-30T16:32:58;103482.16;;;3.33;100.00
55077;BME280;40971;44.702;11.030;2024-01-30T16:43:02;103497.75;;;3.33;100.00
55077;BME280;40971;44.702;11.030;2024-01-30T16:53:07;103498.75;;;3.29;100.00
55077;BME280;40971;44.702;11.030;2024-01-30T17:03:09;103514.78;;;3.15;100.00
55077;BME280;40971;44.702;11.030;2024-01-30T17:13:11;103516.81;;;3.06;100.00
55077;BME280;40971;44.702;11.030;2024-01-30T17:23:13;103523.19;;;2.96;100.00
55077;BME280;40971;44.702;11.030;2024-01-30T17:33:15;103516.72;;;2.49;100.00
55077;BME280;40971;44.702;11.030;2024-01-30T17:43:17;103519.81;;;1.98;100.00
55077;BME280;40971;44.702;11.030;2024-01-30T17:53:22;103529.22;;;2.04;100.00
55077;BME280;40971;44.702;11.030;2024-01-30T18:03:24;103527.38;;;1.73;100.00
55077;BME280;40971;44.702;11.030;2024-01-30T18:13:26;103545.16;;;1.87;100.00
55077;BME280;40971;44.702;11.030;2024-01-30T18:23:27;103537.84;;;1.69;100.00
55077;BME280;40971;44.702;11.030;2024-01-30T18:33:30;103536.56;;;1.13;100.00
55077;BME280;40971;44.702;11.030;2024-01-30T18:43:31;103550.13;;;0.41;100.00
55077;BME280;40971;44.702;11.030;2024-01-30T18:53:35;103548.56;;;0.31;100.00
55077;BME280;40971;44.702;11.030;2024-01-30T19:03:36;103557.56;;;0.58;100.00
55077;BME280;40971;44.702;11.030;2024-01-30T19:13:41;103547.97;;;0.17;100.00
55077;BME280;40971;44.702;11.030;2024-01-30T19:23:45;103558.47;;;0.10;100.00
55077;BME280;40971;44.702;11.030;2024-01-30T19:33:47;103564.31;;;-0.31;100.00
55077;BME280;40971;44.702;11.030;2024-01-30T19:43:47;103568.84;;;-0.45;100.00
55077;BME280;40971;44.702;11.030;2024-01-30T19:53:52;103561.78;;;-0.34;100.00
55077;BME280;40971;44.702;11.030;2024-01-30T20:03:53;103567.63;;;-0.23;100.00
55077;BME280;40971;44.702;11.030;2024-01-30T20:13:54;103568.81;;;-0.44;100.00
55077;BME280;40971;44.702;11.030;2024-01-30T20:23:56;103564.91;;;-0.72;100.00
55077;BME280;40971;44.702;11.030;2024-01-30T20:34:00;103568.19;;;-0.61;100.00
55077;BME280;40971;44.702;11.030;2024-01-30T20:44:02;103546.97;;;-0.83;100.00
55077;BME280;40971;44.702;11.030;2024-01-30T20:54:05;103563.78;;;-0.54;100.00
55077;BME280;40971;44.702;11.030;2024-01-30T21:04:06;103564.91;;;-0.16;100.00
55077;BME280;40971;44.702;11.030;2024-01-30T21:14:08;103560.84;;;-0.30;100.00
55077;BME280;40971;44.702;11.030;2024-01-30T21:24:09;103561.28;;;-0.61;100.00
55077;BME280;40971;44.702;11.030;2024-01-30T21:34:11;103551.78;;;-1.23;100.00
55077;BME280;40971;44.702;11.030;2024-01-30T21:44:14;103545.78;;;-1.23;100.00
55077;BME280;40971;44.702;11.030;2024-01-30T21:54:16;103549.63;;;-1.57;100.00
55077;BME280;40971;44.702;11.030;2024-01-30T22:04:18;103544.72;;;-1.08;100.00
55077;BME280;40971;44.702;11.030;2024-01-30T22:14:22;103542.78;;;-0.91;100.00
55077;BME280;40971;44.702;11.030;2024-01-30T22:24:24;103546.97;;;-0.83;100.00
55077;BME280;40971;44.702;11.030;2024-01-30T22:34:27;103548.72;;;-0.85;100.00
55077;BME280;40971;44.702;11.030;2024-01-30T22:44:29;103553.88;;;-0.83;100.00
55077;BME280;40971;44.702;11.030;2024-01-30T22:54:32;103547.09;;;-0.92;100.00
55077;BME280;40971;44.702;11.030;2024-01-30T23:04:33;103544.50;;;-0.92;100.00
55077;BME280;40971;44.702;11.030;2024-01-30T23:14:35;103539.22;;;-0.81;100.00
55077;BME280;40971;44.702;11.030;2024-01-30T23:24:36;103540.31;;;-0.99;100.00
55077;BME280;40971;44.702;11.030;2024-01-30T23:34:40;103526.91;;;-1.28;100.00
55077;BME280;40971;44.702;11.030;2024-01-30T23:44:42;103521.38;;;-0.98;100.00
55077;BME280;40971;44.702;11.030;2024-01-30T23:54:44;103523.78;;;-0.84;100.00
